sensor_id;sensor_type;location;lat;lon;timestamp;P1;durP1;ratioP1;P2;durP2;ratioP2
42384;SDS011;28042;43.986;22.860;2022-10-16T00:00:40;15.55;;;8.98;;
42384;SDS011;28042;43.986;22.860;2022-10-16T00:03:06;19.15;;;9.32;;
42384;SDS011;28042;43.986;22.860;2022-10-16T00:05:40;14.43;;;8.55;;
42384;SDS011;28042;43.986;22.860;2022-10-16T00:08:07;13.90;;;9.02;;
42384;SDS011;28042;43.986;22.860;2022-10-16T00:10:34;17.90;;;9.52;;
42384;SDS011;28042;43.986;22.860;2022-10-16T00:13:00;14.07;;;8.23;;
42384;SDS011;28042;43.986;22.860;2022-10-16T00:15:26;17.23;;;8.70;;
42384;SDS011;28042;43.986;22.860;2022-10-16T00:17:51;16.95;;;9.10;;
42384;SDS011;28042;43.986;22.860;2022-10-16T00:20:17;14.07;;;9.07;;
42384;SDS011;28042;43.986;22.860;2022-10-16T00:22:42;21.35;;;10.15;;
42384;SDS011;28042;43.986;22.860;2022-10-16T00:27:35;13.32;;;8.65;;
42384;SDS011;28042;43.986;22.860;2022-10-16T00:30:01;13.75;;;8.70;;
42384;SDS011;28042;43.986;22.860;2022-10-16T00:32:26;18.08;;;9.15;;
42384;SDS011;28042;43.986;22.860;2022-10-16T00:34:52;15.90;;;9.45;;
42384;SDS011;28042;43.986;22.860;2022-10-16T00:37:19;18.35;;;9.65;;
42384;SDS011;28042;43.986;22.860;2022-10-16T00:39:45;18.52;;;9.57;;
42384;SDS011;28042;43.986;22.860;2022-10-16T00:42:14;20.00;;;10.90;;
42384;SDS011;28042;43.986;22.860;2022-10-16T00:44:43;17.27;;;11.55;;
42384;SDS011;28042;43.986;22.860;2022-10-16T00:47:24;20.10;;;11.23;;
42384;SDS011;28042;43.986;22.860;2022-10-16T00:49:53;16.63;;;10.50;;
42384;SDS011;28042;43.986;22.860;2022-10-16T00:52:41;15.77;;;10.15;;
42384;SDS011;28042;43.986;22.860;2022-10-16T00:55:09;17.02;;;10.20;;
42384;SDS011;28042;43.986;22.860;2022-10-16T00:57:35;18.05;;;10.30;;
42384;SDS011;28042;43.986;22.860;2022-10-16T01:00:03;15.32;;;9.60;;
42384;SDS011;28042;43.986;22.860;2022-10-16T01:02:30;15.13;;;9.50;;
42384;SDS011;28042;43.986;22.860;2022-10-16T01:04:55;15.65;;;8.73;;
42384;SDS011;28042;43.986;22.860;2022-10-16T01:15:37;20.85;;;9.45;;
42384;SDS011;28042;43.986;22.860;2022-10-16T01:20:48;18.40;;;9.15;;
42384;SDS011;28042;43.986;22.860;2022-10-16T01:26:30;16.48;;;9.35;;
42384;SDS011;28042;43.986;22.860;2022-10-16T01:29:01;12.68;;;9.30;;
42384;SDS011;28042;43.986;22.860;2022-10-16T01:31:36;13.55;;;9.20;;
42384;SDS011;28042;43.986;22.860;2022-10-16T01:34:10;17.30;;;8.90;;
42384;SDS011;28042;43.986;22.860;2022-10-16T01:36:44;18.50;;;9.57;;
42384;SDS011;28042;43.986;22.860;2022-10-16T01:39:15;21.13;;;9.82;;
42384;SDS011;28042;43.986;22.860;2022-10-16T01:41:47;18.48;;;9.55;;
42384;SDS011;28042;43.986;22.860;2022-10-16T01:44:19;17.85;;;9.63;;
42384;SDS011;28042;43.986;22.860;2022-10-16T01:46:50;16.85;;;9.75;;
42384;SDS011;28042;43.986;22.860;2022-10-16T01:49:17;15.43;;;10.35;;
42384;SDS011;28042;43.986;22.860;2022-10-16T01:51:45;19.55;;;10.98;;
42384;SDS011;28042;43.986;22.860;2022-10-16T01:54:15;19.30;;;11.15;;
42384;SDS011;28042;43.986;22.860;2022-10-16T01:56:44;17.75;;;10.57;;
42384;SDS011;28042;43.986;22.860;2022-10-16T01:59:12;15.97;;;9.93;;
42384;SDS011;28042;43.986;22.860;2022-10-16T02:01:42;20.80;;;10.32;;
42384;SDS011;28042;43.986;22.860;2022-10-16T02:04:28;13.98;;;10.35;;
42384;SDS011;28042;43.986;22.860;2022-10-16T02:06:57;19.15;;;10.88;;
42384;SDS011;28042;43.986;22.860;2022-10-16T02:09:22;19.88;;;10.93;;
42384;SDS011;28042;43.986;22.860;2022-10-16T02:11:48;20.35;;;10.38;;
42384;SDS011;28042;43.986;22.860;2022-10-16T02:14:17;16.38;;;11.35;;
42384;SDS011;28042;43.986;22.860;2022-10-16T02:16:45;19.02;;;11.10;;
42384;SDS011;28042;43.986;22.860;2022-10-16T02:19:15;15.82;;;11.20;;
42384;SDS011;28042;43.986;22.860;2022-10-16T02:24:38;34.03;;;11.90;;
42384;SDS011;28042;43.986;22.860;2022-10-16T02:27:22;19.65;;;12.48;;
42384;SDS011;28042;43.986;22.860;2022-10-16T02:30:02;16.38;;;10.93;;
42384;SDS011;28042;43.986;22.860;2022-10-16T02:32:33;18.02;;;10.90;;
42384;SDS011;28042;43.986;22.860;2022-10-16T02:35:01;14.93;;;10.35;;
42384;SDS011;28042;43.986;22.860;2022-10-16T02:37:30;35.07;;;11.73;;
42384;SDS011;28042;43.986;22.860;2022-10-16T02:39:57;34.70;;;11.00;;
42384;SDS011;28042;43.986;22.860;2022-10-16T02:42:36;18.55;;;10.95;;
42384;SDS011;28042;43.986;22.860;2022-10-16T02:45:05;15.23;;;10.77;;
42384;SDS011;28042;43.986;22.860;2022-10-16T02:47:31;17.75;;;10.10;;
42384;SDS011;28042;43.986;22.860;2022-10-16T02:49:57;18.83;;;10.25;;
42384;SDS011;28042;43.986;22.860;2022-10-16T02:52:22;16.83;;;10.45;;
42384;SDS011;28042;43.986;22.860;2022-10-16T02:54:48;13.73;;;9.32;;
42384;SDS011;28042;43.986;22.860;2022-10-16T02:57:13;14.73;;;10.27;;
42384;SDS011;28042;43.986;22.860;2022-10-16T02:59:39;13.60;;;9.75;;
42384;SDS011;28042;43.986;22.860;2022-10-16T03:02:04;16.55;;;10.35;;
42384;SDS011;28042;43.986;22.860;2022-10-16T03:04:30;16.70;;;11.05;;
42384;SDS011;28042;43.986;22.860;2022-10-16T03:06:55;19.13;;;11.32;;
42384;SDS011;28042;43.986;22.860;2022-10-16T03:09:21;17.40;;;10.65;;
42384;SDS011;28042;43.986;22.860;2022-10-16T03:11:46;18.77;;;10.60;;
42384;SDS011;28042;43.986;22.860;2022-10-16T03:14:12;19.67;;;10.85;;
42384;SDS011;28042;43.986;22.860;2022-10-16T03:16:38;17.67;;;11.40;;
42384;SDS011;28042;43.986;22.860;2022-10-16T03:19:03;16.85;;;10.18;;
42384;SDS011;28042;43.986;22.860;2022-10-16T03:21:29;20.38;;;11.50;;
42384;SDS011;28042;43.986;22.860;2022-10-16T03:23:54;18.40;;;11.98;;
42384;SDS011;28042;43.986;22.860;2022-10-16T03:26:20;17.23;;;10.70;;
42384;SDS011;28042;43.986;22.860;2022-10-16T03:28:45;24.63;;;10.93;;
42384;SDS011;28042;43.986;22.860;2022-10-16T03:31:12;15.90;;;10.52;;
42384;SDS011;28042;43.986;22.860;2022-10-16T03:33:37;16.52;;;11.13;;
42384;SDS011;28042;43.986;22.860;2022-10-16T03:36:03;17.83;;;11.23;;
42384;SDS011;28042;43.986;22.860;2022-10-16T03:38:28;15.95;;;10.63;;
42384;SDS011;28042;43.986;22.860;2022-10-16T03:40:54;14.57;;;11.65;;
42384;SDS011;28042;43.986;22.860;2022-10-16T03:45:47;15.30;;;11.18;;
42384;SDS011;28042;43.986;22.860;2022-10-16T03:48:12;20.88;;;10.95;;
42384;SDS011;28042;43.986;22.860;2022-10-16T03:50:38;16.10;;;10.25;;
42384;SDS011;28042;43.986;22.860;2022-10-16T03:53:03;14.43;;;9.80;;
42384;SDS011;28042;43.986;22.860;2022-10-16T03:55:29;18.63;;;12.07;;
42384;SDS011;28042;43.986;22.860;2022-10-16T03:57:54;15.20;;;10.15;;
42384;SDS011;28042;43.986;22.860;2022-10-16T04:00:20;16.08;;;10.10;;
42384;SDS011;28042;43.986;22.860;2022-10-16T04:02:45;16.60;;;10.82;;
42384;SDS011;28042;43.986;22.860;2022-10-16T04:05:11;13.82;;;9.85;;
42384;SDS011;28042;43.986;22.860;2022-10-16T04:07:36;14.70;;;10.25;;
42384;SDS011;28042;43.986;22.860;2022-10-16T04:10:03;13.07;;;9.73;;
42384;SDS011;28042;43.986;22.860;2022-10-16T04:12:29;15.90;;;10.30;;
42384;SDS011;28042;43.986;22.860;2022-10-16T04:14:54;17.20;;;10.23;;
42384;SDS011;28042;43.986;22.860;2022-10-16T04:17:20;15.45;;;10.68;;
42384;SDS011;28042;43.986;22.860;2022-10-16T04:19:45;15.27;;;10.32;;
42384;SDS011;28042;43.986;22.860;2022-10-16T04:22:11;16.77;;;11.10;;
42384;SDS011;28042;43.986;22.860;2022-10-16T04:24:36;19.90;;;11.15;;
42384;SDS011;28042;43.986;22.860;2022-10-16T04:27:02;23.67;;;10.63;;
42384;SDS011;28042;43.986;22.860;2022-10-16T04:29:27;15.57;;;10.40;;
42384;SDS011;28042;43.986;22.860;2022-10-16T04:31:53;17.48;;;10.73;;
42384;SDS011;28042;43.986;22.860;2022-10-16T04:34:18;24.90;;;10.75;;
42384;SDS011;28042;43.986;22.860;2022-10-16T04:36:44;15.48;;;11.18;;
42384;SDS011;28042;43.986;22.860;2022-10-16T04:39:13;16.73;;;10.77;;
42384;SDS011;28042;43.986;22.860;2022-10-16T04:41:38;19.63;;;10.43;;
42384;SDS011;28042;43.986;22.860;2022-10-16T04:44:04;22.23;;;10.85;;
42384;SDS011;28042;43.986;22.860;2022-10-16T04:46:29;29.90;;;12.50;;
42384;SDS011;28042;43.986;22.860;2022-10-16T04:48:55;27.27;;;12.15;;
42384;SDS011;28042;43.986;22.860;2022-10-16T04:51:20;18.67;;;12.18;;
42384;SDS011;28042;43.986;22.860;2022-10-16T04:53:45;22.83;;;13.05;;
42384;SDS011;28042;43.986;22.860;2022-10-16T04:56:11;21.67;;;11.93;;
42384;SDS011;28042;43.986;22.860;2022-10-16T04:58:36;24.17;;;10.60;;
42384;SDS011;28042;43.986;22.860;2022-10-16T05:01:02;21.00;;;11.32;;
42384;SDS011;28042;43.986;22.860;2022-10-16T05:03:27;21.73;;;11.88;;
42384;SDS011;28042;43.986;22.860;2022-10-16T05:05:53;22.58;;;11.80;;
42384;SDS011;28042;43.986;22.860;2022-10-16T05:08:18;22.73;;;12.48;;
42384;SDS011;28042;43.986;22.860;2022-10-16T05:10:44;18.55;;;11.93;;
42384;SDS011;28042;43.986;22.860;2022-10-16T05:13:10;18.92;;;10.75;;
42384;SDS011;28042;43.986;22.860;2022-10-16T05:15:36;23.10;;;11.88;;
42384;SDS011;28042;43.986;22.860;2022-10-16T05:18:01;16.55;;;11.45;;
42384;SDS011;28042;43.986;22.860;2022-10-16T05:20:27;15.88;;;11.25;;
42384;SDS011;28042;43.986;22.860;2022-10-16T05:22:53;21.45;;;10.98;;
42384;SDS011;28042;43.986;22.860;2022-10-16T05:25:18;34.17;;;11.68;;
42384;SDS011;28042;43.986;22.860;2022-10-16T05:27:47;25.15;;;10.95;;
42384;SDS011;28042;43.986;22.860;2022-10-16T05:30:13;21.10;;;10.30;;
42384;SDS011;28042;43.986;22.860;2022-10-16T05:32:39;16.88;;;11.40;;
42384;SDS011;28042;43.986;22.860;2022-10-16T05:35:05;22.33;;;11.55;;
42384;SDS011;28042;43.986;22.860;2022-10-16T05:37:30;20.27;;;11.98;;
42384;SDS011;28042;43.986;22.860;2022-10-16T05:39:56;23.88;;;12.52;;
42384;SDS011;28042;43.986;22.860;2022-10-16T05:42:21;21.88;;;13.18;;
42384;SDS011;28042;43.986;22.860;2022-10-16T05:44:47;22.63;;;12.20;;
42384;SDS011;28042;43.986;22.860;2022-10-16T05:47:12;16.90;;;11.55;;
42384;SDS011;28042;43.986;22.860;2022-10-16T05:49:39;21.40;;;11.93;;
42384;SDS011;28042;43.986;22.860;2022-10-16T05:52:04;18.75;;;11.50;;
42384;SDS011;28042;43.986;22.860;2022-10-16T05:54:30;22.58;;;14.77;;
42384;SDS011;28042;43.986;22.860;2022-10-16T05:56:55;28.52;;;15.27;;
42384;SDS011;28042;43.986;22.860;2022-10-16T05:59:21;26.85;;;14.07;;
42384;SDS011;28042;43.986;22.860;2022-10-16T06:01:46;20.38;;;11.98;;
42384;SDS011;28042;43.986;22.860;2022-10-16T06:04:11;18.23;;;11.57;;
42384;SDS011;28042;43.986;22.860;2022-10-16T06:06:37;17.35;;;12.10;;
42384;SDS011;28042;43.986;22.860;2022-10-16T06:09:03;29.27;;;13.00;;
42384;SDS011;28042;43.986;22.860;2022-10-16T06:11:30;28.73;;;17.80;;
42384;SDS011;28042;43.986;22.860;2022-10-16T06:13:58;21.25;;;18.13;;
42384;SDS011;28042;43.986;22.860;2022-10-16T06:16:27;24.27;;;18.15;;
42384;SDS011;28042;43.986;22.860;2022-10-16T06:18:54;23.08;;;15.43;;
42384;SDS011;28042;43.986;22.860;2022-10-16T06:21:21;18.63;;;13.02;;
42384;SDS011;28042;43.986;22.860;2022-10-16T06:23:52;23.80;;;12.77;;
42384;SDS011;28042;43.986;22.860;2022-10-16T06:26:19;34.10;;;12.50;;
42384;SDS011;28042;43.986;22.860;2022-10-16T06:28:47;19.95;;;12.32;;
42384;SDS011;28042;43.986;22.860;2022-10-16T06:31:13;18.05;;;12.50;;
42384;SDS011;28042;43.986;22.860;2022-10-16T06:33:40;31.87;;;13.67;;
42384;SDS011;28042;43.986;22.860;2022-10-16T06:36:06;30.70;;;13.50;;
42384;SDS011;28042;43.986;22.860;2022-10-16T06:38:34;18.08;;;12.23;;
42384;SDS011;28042;43.986;22.860;2022-10-16T06:41:00;23.23;;;15.27;;
42384;SDS011;28042;43.986;22.860;2022-10-16T06:43:27;26.48;;;13.80;;
42384;SDS011;28042;43.986;22.860;2022-10-16T06:45:57;19.90;;;14.88;;
42384;SDS011;28042;43.986;22.860;2022-10-16T06:48:23;29.95;;;15.02;;
42384;SDS011;28042;43.986;22.860;2022-10-16T06:50:55;23.33;;;14.07;;
42384;SDS011;28042;43.986;22.860;2022-10-16T06:53:21;23.63;;;14.15;;
42384;SDS011;28042;43.986;22.860;2022-10-16T06:55:47;22.90;;;14.57;;
42384;SDS011;28042;43.986;22.860;2022-10-16T06:58:12;17.58;;;13.57;;
42384;SDS011;28042;43.986;22.860;2022-10-16T07:00:38;18.58;;;13.93;;
42384;SDS011;28042;43.986;22.860;2022-10-16T07:03:03;19.00;;;13.68;;
42384;SDS011;28042;43.986;22.860;2022-10-16T07:05:29;23.70;;;14.20;;
42384;SDS011;28042;43.986;22.860;2022-10-16T07:07:54;22.60;;;15.98;;
42384;SDS011;28042;43.986;22.860;2022-10-16T07:10:19;34.00;;;16.83;;
42384;SDS011;28042;43.986;22.860;2022-10-16T07:12:49;21.40;;;14.95;;
42384;SDS011;28042;43.986;22.860;2022-10-16T07:15:14;24.55;;;15.95;;
42384;SDS011;28042;43.986;22.860;2022-10-16T07:17:40;26.08;;;15.55;;
42384;SDS011;28042;43.986;22.860;2022-10-16T07:20:05;26.38;;;16.05;;
42384;SDS011;28042;43.986;22.860;2022-10-16T07:22:31;24.17;;;16.25;;
42384;SDS011;28042;43.986;22.860;2022-10-16T07:24:57;24.52;;;15.05;;
42384;SDS011;28042;43.986;22.860;2022-10-16T07:27:23;23.30;;;16.27;;
42384;SDS011;28042;43.986;22.860;2022-10-16T07:29:49;23.38;;;16.05;;
42384;SDS011;28042;43.986;22.860;2022-10-16T07:32:15;25.80;;;16.10;;
42384;SDS011;28042;43.986;22.860;2022-10-16T07:34:40;22.02;;;15.85;;
42384;SDS011;28042;43.986;22.860;2022-10-16T07:37:07;28.85;;;15.55;;
42384;SDS011;28042;43.986;22.860;2022-10-16T07:39:32;25.25;;;15.63;;
42384;SDS011;28042;43.986;22.860;2022-10-16T07:41:58;26.90;;;15.43;;
42384;SDS011;28042;43.986;22.860;2022-10-16T07:44:24;37.58;;;16.08;;
42384;SDS011;28042;43.986;22.860;2022-10-16T07:46:49;22.52;;;14.75;;
42384;SDS011;28042;43.986;22.860;2022-10-16T07:49:15;24.45;;;16.00;;
42384;SDS011;28042;43.986;22.860;2022-10-16T07:51:40;21.20;;;14.57;;
42384;SDS011;28042;43.986;22.860;2022-10-16T07:54:07;18.73;;;14.68;;
42384;SDS011;28042;43.986;22.860;2022-10-16T07:56:33;22.80;;;14.82;;
42384;SDS011;28042;43.986;22.860;2022-10-16T07:58:59;21.70;;;14.88;;
42384;SDS011;28042;43.986;22.860;2022-10-16T08:01:24;21.40;;;14.82;;
42384;SDS011;28042;43.986;22.860;2022-10-16T08:03:50;25.77;;;14.85;;
42384;SDS011;28042;43.986;22.860;2022-10-16T08:06:17;22.55;;;15.10;;
42384;SDS011;28042;43.986;22.860;2022-10-16T08:08:44;19.92;;;14.85;;
42384;SDS011;28042;43.986;22.860;2022-10-16T08:11:09;25.55;;;14.73;;
42384;SDS011;28042;43.986;22.860;2022-10-16T08:13:35;27.08;;;15.60;;
42384;SDS011;28042;43.986;22.860;2022-10-16T08:16:01;21.70;;;15.68;;
42384;SDS011;28042;43.986;22.860;2022-10-16T08:18:28;35.15;;;17.05;;
42384;SDS011;28042;43.986;22.860;2022-10-16T08:20:58;20.75;;;14.13;;
42384;SDS011;28042;43.986;22.860;2022-10-16T08:23:25;21.95;;;14.93;;
42384;SDS011;28042;43.986;22.860;2022-10-16T08:25:52;28.00;;;15.48;;
42384;SDS011;28042;43.986;22.860;2022-10-16T08:28:18;20.90;;;14.20;;
42384;SDS011;28042;43.986;22.860;2022-10-16T08:30:44;20.48;;;14.27;;
42384;SDS011;28042;43.986;22.860;2022-10-16T08:33:10;20.92;;;14.30;;
42384;SDS011;28042;43.986;22.860;2022-10-16T08:35:36;21.38;;;15.23;;
42384;SDS011;28042;43.986;22.860;2022-10-16T08:38:05;24.17;;;15.65;;
42384;SDS011;28042;43.986;22.860;2022-10-16T08:40:32;20.48;;;13.45;;
42384;SDS011;28042;43.986;22.860;2022-10-16T08:46:03;19.33;;;14.32;;
42384;SDS011;28042;43.986;22.860;2022-10-16T08:48:53;22.80;;;14.07;;
42384;SDS011;28042;43.986;22.860;2022-10-16T08:51:26;20.02;;;14.45;;
42384;SDS011;28042;43.986;22.860;2022-10-16T08:53:57;21.30;;;14.32;;
42384;SDS011;28042;43.986;22.860;2022-10-16T08:56:25;25.45;;;14.27;;
42384;SDS011;28042;43.986;22.860;2022-10-16T08:58:51;20.77;;;13.90;;
42384;SDS011;28042;43.986;22.860;2022-10-16T09:01:18;23.83;;;14.85;;
42384;SDS011;28042;43.986;22.860;2022-10-16T09:09:21;27.67;;;14.32;;
42384;SDS011;28042;43.986;22.860;2022-10-16T09:12:11;17.75;;;13.07;;
42384;SDS011;28042;43.986;22.860;2022-10-16T09:22:45;18.77;;;13.70;;
42384;SDS011;28042;43.986;22.860;2022-10-16T09:25:13;19.20;;;13.48;;
42384;SDS011;28042;43.986;22.860;2022-10-16T09:27:42;21.13;;;13.75;;
42384;SDS011;28042;43.986;22.860;2022-10-16T09:30:20;20.98;;;14.07;;
42384;SDS011;28042;43.986;22.860;2022-10-16T09:32:48;18.33;;;13.25;;
42384;SDS011;28042;43.986;22.860;2022-10-16T09:35:21;26.33;;;13.43;;
42384;SDS011;28042;43.986;22.860;2022-10-16T09:37:52;20.10;;;13.75;;
42384;SDS011;28042;43.986;22.860;2022-10-16T09:48:27;19.35;;;13.20;;
42384;SDS011;28042;43.986;22.860;2022-10-16T09:51:01;24.58;;;13.27;;
42384;SDS011;28042;43.986;22.860;2022-10-16T09:53:39;19.90;;;12.68;;
42384;SDS011;28042;43.986;22.860;2022-10-16T09:56:20;23.20;;;13.43;;
42384;SDS011;28042;43.986;22.860;2022-10-16T09:58:52;17.27;;;12.05;;
42384;SDS011;28042;43.986;22.860;2022-10-16T10:01:37;18.40;;;12.68;;
42384;SDS011;28042;43.986;22.860;2022-10-16T10:04:07;19.70;;;12.10;;
42384;SDS011;28042;43.986;22.860;2022-10-16T10:06:34;21.13;;;13.15;;
42384;SDS011;28042;43.986;22.860;2022-10-16T10:09:05;19.48;;;12.45;;
42384;SDS011;28042;43.986;22.860;2022-10-16T10:11:41;20.55;;;12.70;;
42384;SDS011;28042;43.986;22.860;2022-10-16T10:16:51;15.95;;;10.75;;
42384;SDS011;28042;43.986;22.860;2022-10-16T10:19:19;20.85;;;10.25;;
42384;SDS011;28042;43.986;22.860;2022-10-16T10:21:49;15.35;;;9.65;;
42384;SDS011;28042;43.986;22.860;2022-10-16T10:24:17;18.00;;;9.65;;
42384;SDS011;28042;43.986;22.860;2022-10-16T10:32:12;16.15;;;9.55;;
42384;SDS011;28042;43.986;22.860;2022-10-16T10:50:58;15.05;;;8.70;;
42384;SDS011;28042;43.986;22.860;2022-10-16T10:58:22;13.02;;;7.80;;
42384;SDS011;28042;43.986;22.860;2022-10-16T11:01:14;15.18;;;7.53;;
42384;SDS011;28042;43.986;22.860;2022-10-16T11:10:11;18.80;;;6.82;;
42384;SDS011;28042;43.986;22.860;2022-10-16T11:12:42;11.73;;;6.13;;
42384;SDS011;28042;43.986;22.860;2022-10-16T11:15:19;11.60;;;5.93;;
42384;SDS011;28042;43.986;22.860;2022-10-16T11:20:28;9.18;;;6.22;;
42384;SDS011;28042;43.986;22.860;2022-10-16T11:23:02;12.85;;;5.95;;
42384;SDS011;28042;43.986;22.860;2022-10-16T11:25:42;12.07;;;6.22;;
42384;SDS011;28042;43.986;22.860;2022-10-16T11:36:12;11.05;;;5.95;;
42384;SDS011;28042;43.986;22.860;2022-10-16T11:38:51;12.37;;;5.40;;
42384;SDS011;28042;43.986;22.860;2022-10-16T11:41:32;9.05;;;5.00;;
42384;SDS011;28042;43.986;22.860;2022-10-16T11:46:58;8.60;;;5.00;;
42384;SDS011;28042;43.986;22.860;2022-10-16T11:49:35;8.27;;;5.47;;
42384;SDS011;28042;43.986;22.860;2022-10-16T11:54:36;8.18;;;4.85;;
42384;SDS011;28042;43.986;22.860;2022-10-16T11:57:03;8.05;;;5.20;;
42384;SDS011;28042;43.986;22.860;2022-10-16T11:59:57;8.63;;;5.40;;
42384;SDS011;28042;43.986;22.860;2022-10-16T12:02:32;12.82;;;4.88;;
42384;SDS011;28042;43.986;22.860;2022-10-16T12:05:03;14.35;;;4.90;;
42384;SDS011;28042;43.986;22.860;2022-10-16T12:07:42;8.02;;;4.95;;
42384;SDS011;28042;43.986;22.860;2022-10-16T12:10:19;10.35;;;5.13;;
42384;SDS011;28042;43.986;22.860;2022-10-16T12:12:47;10.82;;;5.38;;
42384;SDS011;28042;43.986;22.860;2022-10-16T12:15:21;8.85;;;5.13;;
42384;SDS011;28042;43.986;22.860;2022-10-16T12:17:51;12.52;;;5.30;;
42384;SDS011;28042;43.986;22.860;2022-10-16T12:28:16;7.75;;;4.70;;
42384;SDS011;28042;43.986;22.860;2022-10-16T12:30:55;6.57;;;4.38;;
42384;SDS011;28042;43.986;22.860;2022-10-16T12:33:27;10.32;;;4.85;;
42384;SDS011;28042;43.986;22.860;2022-10-16T12:35:55;12.85;;;5.07;;
42384;SDS011;28042;43.986;22.860;2022-10-16T12:41:02;7.75;;;4.63;;
42384;SDS011;28042;43.986;22.860;2022-10-16T12:43:46;14.50;;;4.53;;
42384;SDS011;28042;43.986;22.860;2022-10-16T12:48:39;7.68;;;4.78;;
42384;SDS011;28042;43.986;22.860;2022-10-16T12:51:12;7.47;;;4.70;;
42384;SDS011;28042;43.986;22.860;2022-10-16T13:04:58;6.90;;;4.13;;
42384;SDS011;28042;43.986;22.860;2022-10-16T13:13:03;7.75;;;4.40;;
42384;SDS011;28042;43.986;22.860;2022-10-16T13:27:05;7.00;;;4.35;;
42384;SDS011;28042;43.986;22.860;2022-10-16T13:29:40;7.35;;;4.15;;
42384;SDS011;28042;43.986;22.860;2022-10-16T13:32:07;8.68;;;4.43;;
42384;SDS011;28042;43.986;22.860;2022-10-16T13:34:44;8.75;;;4.75;;
42384;SDS011;28042;43.986;22.860;2022-10-16T13:37:18;8.43;;;4.30;;
42384;SDS011;28042;43.986;22.860;2022-10-16T13:39:46;6.20;;;4.28;;
42384;SDS011;28042;43.986;22.860;2022-10-16T13:42:14;13.05;;;4.43;;
42384;SDS011;28042;43.986;22.860;2022-10-16T13:44:46;11.30;;;4.72;;
42384;SDS011;28042;43.986;22.860;2022-10-16T13:47:16;18.55;;;4.75;;
42384;SDS011;28042;43.986;22.860;2022-10-16T13:49:45;7.32;;;3.80;;
42384;SDS011;28042;43.986;22.860;2022-10-16T13:52:16;6.70;;;3.90;;
42384;SDS011;28042;43.986;22.860;2022-10-16T13:54:44;8.02;;;3.55;;
42384;SDS011;28042;43.986;22.860;2022-10-16T13:57:12;7.22;;;3.78;;
42384;SDS011;28042;43.986;22.860;2022-10-16T13:59:39;7.82;;;4.30;;
42384;SDS011;28042;43.986;22.860;2022-10-16T14:04:55;6.90;;;3.95;;
42384;SDS011;28042;43.986;22.860;2022-10-16T14:07:32;7.72;;;4.22;;
42384;SDS011;28042;43.986;22.860;2022-10-16T14:10:06;10.02;;;4.45;;
42384;SDS011;28042;43.986;22.860;2022-10-16T14:12:45;6.35;;;4.25;;
42384;SDS011;28042;43.986;22.860;2022-10-16T14:15:17;8.02;;;4.53;;
42384;SDS011;28042;43.986;22.860;2022-10-16T14:17:48;6.85;;;3.95;;
42384;SDS011;28042;43.986;22.860;2022-10-16T14:20:25;7.68;;;3.92;;
42384;SDS011;28042;43.986;22.860;2022-10-16T14:23:00;8.48;;;4.13;;
42384;SDS011;28042;43.986;22.860;2022-10-16T14:25:46;5.78;;;3.55;;
42384;SDS011;28042;43.986;22.860;2022-10-16T14:28:18;6.70;;;4.40;;
42384;SDS011;28042;43.986;22.860;2022-10-16T14:30:52;8.93;;;4.77;;
42384;SDS011;28042;43.986;22.860;2022-10-16T14:33:33;9.57;;;4.88;;
42384;SDS011;28042;43.986;22.860;2022-10-16T14:36:03;7.30;;;4.82;;
42384;SDS011;28042;43.986;22.860;2022-10-16T14:38:35;13.05;;;5.28;;
42384;SDS011;28042;43.986;22.860;2022-10-16T14:43:35;8.90;;;5.10;;
42384;SDS011;28042;43.986;22.860;2022-10-16T14:46:02;12.57;;;5.30;;
42384;SDS011;28042;43.986;22.860;2022-10-16T14:48:32;9.50;;;5.43;;
42384;SDS011;28042;43.986;22.860;2022-10-16T14:50:57;9.40;;;5.47;;
42384;SDS011;28042;43.986;22.860;2022-10-16T14:53:23;7.43;;;4.78;;
42384;SDS011;28042;43.986;22.860;2022-10-16T14:55:49;9.43;;;5.30;;
42384;SDS011;28042;43.986;22.860;2022-10-16T14:58:21;12.27;;;6.80;;
42384;SDS011;28042;43.986;22.860;2022-10-16T15:00:48;12.98;;;5.55;;
42384;SDS011;28042;43.986;22.860;2022-10-16T15:03:14;13.00;;;7.00;;
42384;SDS011;28042;43.986;22.860;2022-10-16T15:05:40;9.60;;;4.95;;
42384;SDS011;28042;43.986;22.860;2022-10-16T15:08:05;8.88;;;5.00;;
42384;SDS011;28042;43.986;22.860;2022-10-16T15:10:31;19.45;;;5.50;;
42384;SDS011;28042;43.986;22.860;2022-10-16T15:13:02;12.20;;;5.28;;
42384;SDS011;28042;43.986;22.860;2022-10-16T15:17:53;11.43;;;5.40;;
42384;SDS011;28042;43.986;22.860;2022-10-16T15:20:29;7.95;;;5.88;;
42384;SDS011;28042;43.986;22.860;2022-10-16T15:22:58;18.27;;;6.40;;
42384;SDS011;28042;43.986;22.860;2022-10-16T15:28:02;22.65;;;7.40;;
42384;SDS011;28042;43.986;22.860;2022-10-16T15:30:29;17.08;;;7.30;;
42384;SDS011;28042;43.986;22.860;2022-10-16T15:32:55;10.35;;;6.40;;
42384;SDS011;28042;43.986;22.860;2022-10-16T15:35:21;9.40;;;6.07;;
42384;SDS011;28042;43.986;22.860;2022-10-16T15:37:47;16.38;;;7.55;;
42384;SDS011;28042;43.986;22.860;2022-10-16T15:40:13;11.82;;;6.70;;
42384;SDS011;28042;43.986;22.860;2022-10-16T15:42:39;13.05;;;7.78;;
42384;SDS011;28042;43.986;22.860;2022-10-16T15:45:04;13.13;;;7.40;;
42384;SDS011;28042;43.986;22.860;2022-10-16T15:47:31;15.00;;;8.07;;
42384;SDS011;28042;43.986;22.860;2022-10-16T15:49:57;24.95;;;13.50;;
42384;SDS011;28042;43.986;22.860;2022-10-16T15:52:22;22.58;;;13.90;;
42384;SDS011;28042;43.986;22.860;2022-10-16T15:54:48;26.90;;;14.57;;
42384;SDS011;28042;43.986;22.860;2022-10-16T15:57:13;24.80;;;12.90;;
42384;SDS011;28042;43.986;22.860;2022-10-16T15:59:39;27.05;;;13.88;;
42384;SDS011;28042;43.986;22.860;2022-10-16T16:02:04;31.67;;;12.30;;
42384;SDS011;28042;43.986;22.860;2022-10-16T16:04:30;23.67;;;11.05;;
42384;SDS011;28042;43.986;22.860;2022-10-16T16:06:56;19.10;;;9.00;;
42384;SDS011;28042;43.986;22.860;2022-10-16T16:09:21;23.33;;;9.90;;
42384;SDS011;28042;43.986;22.860;2022-10-16T16:11:47;21.33;;;8.50;;
42384;SDS011;28042;43.986;22.860;2022-10-16T16:14:14;28.23;;;8.52;;
42384;SDS011;28042;43.986;22.860;2022-10-16T16:16:39;16.23;;;8.40;;
42384;SDS011;28042;43.986;22.860;2022-10-16T16:19:06;16.35;;;8.57;;
42384;SDS011;28042;43.986;22.860;2022-10-16T16:21:32;24.40;;;9.10;;
42384;SDS011;28042;43.986;22.860;2022-10-16T16:23:58;22.00;;;10.93;;
42384;SDS011;28042;43.986;22.860;2022-10-16T16:26:24;67.28;;;31.10;;
42384;SDS011;28042;43.986;22.860;2022-10-16T16:29:00;45.60;;;20.67;;
42384;SDS011;28042;43.986;22.860;2022-10-16T16:31:27;35.10;;;17.38;;
42384;SDS011;28042;43.986;22.860;2022-10-16T16:33:53;35.10;;;15.88;;
42384;SDS011;28042;43.986;22.860;2022-10-16T16:36:19;26.60;;;15.65;;
42384;SDS011;28042;43.986;22.860;2022-10-16T16:38:45;23.65;;;12.65;;
42384;SDS011;28042;43.986;22.860;2022-10-16T16:41:22;23.45;;;11.52;;
42384;SDS011;28042;43.986;22.860;2022-10-16T16:43:50;19.38;;;10.35;;
42384;SDS011;28042;43.986;22.860;2022-10-16T16:46:17;33.22;;;12.52;;
42384;SDS011;28042;43.986;22.860;2022-10-16T16:48:44;36.90;;;12.27;;
42384;SDS011;28042;43.986;22.860;2022-10-16T16:51:12;22.05;;;11.10;;
42384;SDS011;28042;43.986;22.860;2022-10-16T16:53:45;31.88;;;13.23;;